sensor_id;sensor_type;location;lat;lon;timestamp;temperature;humidity
6206;DHT22;3136;48.788;9.772;2022-08-19T00:01:31;19.20;99.90
6206;DHT22;3136;48.788;9.772;2022-08-19T00:04:01;19.30;99.90
6206;DHT22;3136;48.788;9.772;2022-08-19T00:06:28;19.10;99.90
6206;DHT22;3136;48.788;9.772;2022-08-19T00:08:54;19.00;1.00
6206;DHT22;3136;48.788;9.772;2022-08-19T00:11:21;19.00;1.00
6206;DHT22;3136;48.788;9.772;2022-08-19T00:13:46;19.00;1.00
6206;DHT22;3136;48.788;9.772;2022-08-19T00:16:14;19.00;8.80
6206;DHT22;3136;48.788;9.772;2022-08-19T00:18:40;19.00;99.90
6206;DHT22;3136;48.788;9.772;2022-08-19T00:21:06;18.90;99.90
6206;DHT22;3136;48.788;9.772;2022-08-19T00:23:34;18.90;99.90
6206;DHT22;3136;48.788;9.772;2022-08-19T00:26:03;18.90;99.90
6206;DHT22;3136;48.788;9.772;2022-08-19T00:28:28;18.80;99.90
6206;DHT22;3136;48.788;9.772;2022-08-19T00:30:54;18.70;1.00
6206;DHT22;3136;48.788;9.772;2022-08-19T00:33:21;18.70;99.90
6206;DHT22;3136;48.788;9.772;2022-08-19T00:35:46;18.80;99.90
6206;DHT22;3136;48.788;9.772;2022-08-19T00:38:12;18.80;99.90
6206;DHT22;3136;48.788;9.772;2022-08-19T00:40:38;18.80;99.90
6206;DHT22;3136;48.788;9.772;2022-08-19T00:43:10;18.80;50.90
6206;DHT22;3136;48.788;9.772;2022-08-19T00:45:38;18.80;99.90
6206;DHT22;3136;48.788;9.772;2022-08-19T00:48:07;18.80;1.00
6206;DHT22;3136;48.788;9.772;2022-08-19T00:50:34;18.80;99.90
6206;DHT22;3136;48.788;9.772;2022-08-19T00:53:00;18.80;1.00
6206;DHT22;3136;48.788;9.772;2022-08-19T00:55:31;18.80;99.90
6206;DHT22;3136;48.788;9.772;2022-08-19T00:58:01;18.90;99.90
6206;DHT22;3136;48.788;9.772;2022-08-19T01:00:28;18.90;99.90
6206;DHT22;3136;48.788;9.772;2022-08-19T01:02:54;18.80;99.90
6206;DHT22;3136;48.788;9.772;2022-08-19T01:05:25;18.80;1.00
6206;DHT22;3136;48.788;9.772;2022-08-19T01:07:53;18.80;48.10
6206;DHT22;3136;48.788;9.772;2022-08-19T01:10:23;18.80;45.70
6206;DHT22;3136;48.788;9.772;2022-08-19T01:12:51;18.70;42.00
6206;DHT22;3136;48.788;9.772;2022-08-19T01:15:27;18.70;99.90
6206;DHT22;3136;48.788;9.772;2022-08-19T01:17:55;18.70;99.90
6206;DHT22;3136;48.788;9.772;2022-08-19T01:20:22;18.80;99.90
6206;DHT22;3136;48.788;9.772;2022-08-19T01:22:50;18.70;99.90
6206;DHT22;3136;48.788;9.772;2022-08-19T01:25:46;18.70;99.90
6206;DHT22;3136;48.788;9.772;2022-08-19T01:28:23;18.70;99.90
6206;DHT22;3136;48.788;9.772;2022-08-19T01:30:48;18.60;99.90
6206;DHT22;3136;48.788;9.772;2022-08-19T01:33:14;18.60;1.00
6206;DHT22;3136;48.788;9.772;2022-08-19T01:35:41;18.60;1.00
6206;DHT22;3136;48.788;9.772;2022-08-19T01:38:09;18.60;1.00
6206;DHT22;3136;48.788;9.772;2022-08-19T01:40:38;18.60;2.30
6206;DHT22;3136;48.788;9.772;2022-08-19T01:43:05;18.60;1.00
6206;DHT22;3136;48.788;9.772;2022-08-19T01:45:32;18.50;99.90
6206;DHT22;3136;48.788;9.772;2022-08-19T01:47:59;18.50;99.90
6206;DHT22;3136;48.788;9.772;2022-08-19T01:50:25;18.60;99.90
6206;DHT22;3136;48.788;9.772;2022-08-19T01:52:51;18.70;99.90
6206;DHT22;3136;48.788;9.772;2022-08-19T01:55:19;18.50;99.90
6206;DHT22;3136;48.788;9.772;2022-08-19T01:57:52;18.50;1.00
6206;DHT22;3136;48.788;9.772;2022-08-19T02:00:23;18.50;1.00
6206;DHT22;3136;48.788;9.772;2022-08-19T02:02:49;18.50;1.00
6206;DHT22;3136;48.788;9.772;2022-08-19T02:05:14;18.50;1.00
6206;DHT22;3136;48.788;9.772;2022-08-19T02:07:43;18.50;14.80
6206;DHT22;3136;48.788;9.772;2022-08-19T02:10:13;18.30;80.10
6206;DHT22;3136;48.788;9.772;2022-08-19T02:12:39;18.50;99.90
6206;DHT22;3136;48.788;9.772;2022-08-19T02:15:05;18.40;99.90
6206;DHT22;3136;48.788;9.772;2022-08-19T02:17:32;18.40;99.90
6206;DHT22;3136;48.788;9.772;2022-08-19T02:19:57;18.40;99.90
6206;DHT22;3136;48.788;9.772;2022-08-19T02:22:24;18.50;99.90
6206;DHT22;3136;48.788;9.772;2022-08-19T02:24:51;18.40;99.90
6206;DHT22;3136;48.788;9.772;2022-08-19T02:27:17;18.30;99.90
6206;DHT22;3136;48.788;9.772;2022-08-19T02:29:43;18.30;99.90
6206;DHT22;3136;48.788;9.772;2022-08-19T02:32:10;18.30;99.90
6206;DHT22;3136;48.788;9.772;2022-08-19T02:34:36;18.40;99.90
6206;DHT22;3136;48.788;9.772;2022-08-19T02:37:01;18.30;99.90
6206;DHT22;3136;48.788;9.772;2022-08-19T02:39:27;18.30;99.90
6206;DHT22;3136;48.788;9.772;2022-08-19T02:41:52;18.30;99.90
6206;DHT22;3136;48.788;9.772;2022-08-19T02:44:18;18.30;99.90
6206;DHT22;3136;48.788;9.772;2022-08-19T02:46:46;18.30;99.90
6206;DHT22;3136;48.788;9.772;2022-08-19T02:49:12;17.90;99.90
6206;DHT22;3136;48.788;9.772;2022-08-19T02:51:41;18.30;99.90
6206;DHT22;3136;48.788;9.772;2022-08-19T02:54:08;18.20;99.90
6206;DHT22;3136;48.788;9.772;2022-08-19T02:56:35;18.30;99.90
6206;DHT22;3136;48.788;9.772;2022-08-19T02:59:02;18.20;1.00
6206;DHT22;3136;48.788;9.772;2022-08-19T03:01:30;18.30;1.00
6206;DHT22;3136;48.788;9.772;2022-08-19T03:03:58;18.20;1.00
6206;DHT22;3136;48.788;9.772;2022-08-19T03:06:25;18.20;1.00
6206;DHT22;3136;48.788;9.772;2022-08-19T03:08:51;18.20;1.00
6206;DHT22;3136;48.788;9.772;2022-08-19T03:11:26;18.20;1.00
6206;DHT22;3136;48.788;9.772;2022-08-19T03:13:53;18.20;1.00
6206;DHT22;3136;48.788;9.772;2022-08-19T03:16:20;18.30;1.00
6206;DHT22;3136;48.788;9.772;2022-08-19T03:18:47;18.20;1.00
6206;DHT22;3136;48.788;9.772;2022-08-19T03:21:17;18.20;1.00
6206;DHT22;3136;48.788;9.772;2022-08-19T03:23:44;18.20;1.00
6206;DHT22;3136;48.788;9.772;2022-08-19T03:26:09;18.30;1.00
6206;DHT22;3136;48.788;9.772;2022-08-19T03:28:35;18.10;1.00
6206;DHT22;3136;48.788;9.772;2022-08-19T03:31:05;18.20;1.00
6206;DHT22;3136;48.788;9.772;2022-08-19T03:33:35;18.10;1.00
6206;DHT22;3136;48.788;9.772;2022-08-19T03:38:37;18.00;1.00
6206;DHT22;3136;48.788;9.772;2022-08-19T03:41:05;18.00;1.00
6206;DHT22;3136;48.788;9.772;2022-08-19T03:43:32;18.00;1.00
6206;DHT22;3136;48.788;9.772;2022-08-19T03:46:09;18.00;99.90
6206;DHT22;3136;48.788;9.772;2022-08-19T03:48:37;18.00;99.90
6206;DHT22;3136;48.788;9.772;2022-08-19T03:51:04;17.90;99.90
6206;DHT22;3136;48.788;9.772;2022-08-19T03:53:31;17.90;99.90
6206;DHT22;3136;48.788;9.772;2022-08-19T03:55:57;17.90;1.00
6206;DHT22;3136;48.788;9.772;2022-08-19T03:58:26;17.90;1.00
6206;DHT22;3136;48.788;9.772;2022-08-19T04:00:55;17.90;1.00
6206;DHT22;3136;48.788;9.772;2022-08-19T04:03:21;18.00;1.00
6206;DHT22;3136;48.788;9.772;2022-08-19T04:05:47;18.00;1.00
6206;DHT22;3136;48.788;9.772;2022-08-19T04:08:13;17.90;1.00
6206;DHT22;3136;48.788;9.772;2022-08-19T04:10:41;18.00;1.00
6206;DHT22;3136;48.788;9.772;2022-08-19T04:13:07;18.00;1.00
6206;DHT22;3136;48.788;9.772;2022-08-19T04:15:38;18.00;1.00
6206;DHT22;3136;48.788;9.772;2022-08-19T04:18:07;18.00;1.00
6206;DHT22;3136;48.788;9.772;2022-08-19T04:20:39;18.00;1.00
6206;DHT22;3136;48.788;9.772;2022-08-19T04:23:04;18.00;1.00
6206;DHT22;3136;48.788;9.772;2022-08-19T04:25:38;18.10;1.00
6206;DHT22;3136;48.788;9.772;2022-08-19T04:28:04;18.00;1.00
6206;DHT22;3136;48.788;9.772;2022-08-19T04:30:30;18.10;1.00
6206;DHT22;3136;48.788;9.772;2022-08-19T04:32:56;18.10;1.00
6206;DHT22;3136;48.788;9.772;2022-08-19T04:35:21;18.20;1.00
6206;DHT22;3136;48.788;9.772;2022-08-19T04:37:47;18.10;1.00
6206;DHT22;3136;48.788;9.772;2022-08-19T04:40:13;18.10;1.00
6206;DHT22;3136;48.788;9.772;2022-08-19T04:42:57;18.10;1.00
6206;DHT22;3136;48.788;9.772;2022-08-19T04:45:22;18.10;1.00
6206;DHT22;3136;48.788;9.772;2022-08-19T04:47:48;18.10;1.00
6206;DHT22;3136;48.788;9.772;2022-08-19T04:50:14;18.10;1.00
6206;DHT22;3136;48.788;9.772;2022-08-19T04:52:40;18.10;1.00
6206;DHT22;3136;48.788;9.772;2022-08-19T04:55:09;18.20;1.00
6206;DHT22;3136;48.788;9.772;2022-08-19T04:57:36;18.20;1.00
6206;DHT22;3136;48.788;9.772;2022-08-19T05:00:06;18.20;1.00
6206;DHT22;3136;48.788;9.772;2022-08-19T05:02:32;18.20;1.00
6206;DHT22;3136;48.788;9.772;2022-08-19T05:04:59;18.20;1.00
6206;DHT22;3136;48.788;9.772;2022-08-19T05:07:26;18.20;99.90
6206;DHT22;3136;48.788;9.772;2022-08-19T05:09:52;18.30;99.90
6206;DHT22;3136;48.788;9.772;2022-08-19T05:12:18;18.20;99.90
6206;DHT22;3136;48.788;9.772;2022-08-19T05:14:45;18.20;99.90
6206;DHT22;3136;48.788;9.772;2022-08-19T05:17:14;18.20;99.90
6206;DHT22;3136;48.788;9.772;2022-08-19T05:19:39;18.20;99.90
6206;DHT22;3136;48.788;9.772;2022-08-19T05:22:24;18.20;99.90
6206;DHT22;3136;48.788;9.772;2022-08-19T05:25:12;18.20;99.90
6206;DHT22;3136;48.788;9.772;2022-08-19T05:27:40;18.20;99.90
6206;DHT22;3136;48.788;9.772;2022-08-19T05:30:06;18.30;99.90
6206;DHT22;3136;48.788;9.772;2022-08-19T05:32:32;18.30;99.90
6206;DHT22;3136;48.788;9.772;2022-08-19T05:34:58;18.30;99.90
6206;DHT22;3136;48.788;9.772;2022-08-19T05:37:24;18.40;99.90
6206;DHT22;3136;48.788;9.772;2022-08-19T05:39:52;18.40;99.90
6206;DHT22;3136;48.788;9.772;2022-08-19T05:42:17;18.40;99.90
6206;DHT22;3136;48.788;9.772;2022-08-19T05:44:45;18.40;99.90
6206;DHT22;3136;48.788;9.772;2022-08-19T05:47:13;18.40;99.90
6206;DHT22;3136;48.788;9.772;2022-08-19T05:49:40;18.50;99.90
6206;DHT22;3136;48.788;9.772;2022-08-19T05:52:09;18.40;79.30
6206;DHT22;3136;48.788;9.772;2022-08-19T05:54:38;18.40;11.50
6206;DHT22;3136;48.788;9.772;2022-08-19T05:57:06;18.60;1.00
6206;DHT22;3136;48.788;9.772;2022-08-19T05:59:32;18.40;1.00
6206;DHT22;3136;48.788;9.772;2022-08-19T06:02:01;18.50;1.00
6206;DHT22;3136;48.788;9.772;2022-08-19T06:04:26;18.40;1.00
6206;DHT22;3136;48.788;9.772;2022-08-19T06:06:53;18.50;1.00
6206;DHT22;3136;48.788;9.772;2022-08-19T06:09:20;18.60;1.00
6206;DHT22;3136;48.788;9.772;2022-08-19T06:11:52;18.60;1.00
6206;DHT22;3136;48.788;9.772;2022-08-19T06:14:22;18.60;99.90
6206;DHT22;3136;48.788;9.772;2022-08-19T06:16:48;18.60;99.90
6206;DHT22;3136;48.788;9.772;2022-08-19T06:19:18;18.60;63.30
6206;DHT22;3136;48.788;9.772;2022-08-19T06:21:46;18.70;1.00
6206;DHT22;3136;48.788;9.772;2022-08-19T06:24:15;18.60;99.90
6206;DHT22;3136;48.788;9.772;2022-08-19T06:26:44;18.50;99.90
6206;DHT22;3136;48.788;9.772;2022-08-19T06:29:12;18.50;1.00
6206;DHT22;3136;48.788;9.772;2022-08-19T06:31:43;18.50;99.90
6206;DHT22;3136;48.788;9.772;2022-08-19T06:34:09;18.50;82.00
6206;DHT22;3136;48.788;9.772;2022-08-19T06:36:37;18.50;99.90
6206;DHT22;3136;48.788;9.772;2022-08-19T06:39:09;18.50;1.60
6206;DHT22;3136;48.788;9.772;2022-08-19T06:41:37;18.50;99.90
6206;DHT22;3136;48.788;9.772;2022-08-19T06:44:04;18.50;1.00
6206;DHT22;3136;48.788;9.772;2022-08-19T06:46:30;18.50;1.00
6206;DHT22;3136;48.788;9.772;2022-08-19T06:48:56;18.50;1.00
6206;DHT22;3136;48.788;9.772;2022-08-19T06:51:23;18.50;1.00
6206;DHT22;3136;48.788;9.772;2022-08-19T06:53:51;18.50;1.00
6206;DHT22;3136;48.788;9.772;2022-08-19T06:56:19;18.50;99.90
6206;DHT22;3136;48.788;9.772;2022-08-19T06:58:45;18.50;1.00
6206;DHT22;3136;48.788;9.772;2022-08-19T07:01:12;18.60;1.00
6206;DHT22;3136;48.788;9.772;2022-08-19T07:03:38;18.60;1.00
6206;DHT22;3136;48.788;9.772;2022-08-19T07:06:05;18.60;3.20
6206;DHT22;3136;48.788;9.772;2022-08-19T07:08:33;18.60;1.00
6206;DHT22;3136;48.788;9.772;2022-08-19T07:10:59;18.50;99.90
6206;DHT22;3136;48.788;9.772;2022-08-19T07:13:24;18.70;1.00
6206;DHT22;3136;48.788;9.772;2022-08-19T07:15:50;18.50;99.90
6206;DHT22;3136;48.788;9.772;2022-08-19T07:18:18;18.50;99.90
6206;DHT22;3136;48.788;9.772;2022-08-19T07:20:45;18.50;1.00
6206;DHT22;3136;48.788;9.772;2022-08-19T07:23:11;18.50;1.00
6206;DHT22;3136;48.788;9.772;2022-08-19T07:25:37;18.50;1.00
6206;DHT22;3136;48.788;9.772;2022-08-19T07:28:03;18.40;1.00
6206;DHT22;3136;48.788;9.772;2022-08-19T07:30:29;18.40;99.90
6206;DHT22;3136;48.788;9.772;2022-08-19T07:32:55;18.40;1.00
6206;DHT22;3136;48.788;9.772;2022-08-19T07:35:21;18.40;1.00
6206;DHT22;3136;48.788;9.772;2022-08-19T07:37:47;18.60;1.00
6206;DHT22;3136;48.788;9.772;2022-08-19T07:40:13;18.50;1.00
6206;DHT22;3136;48.788;9.772;2022-08-19T07:42:38;18.50;1.00
6206;DHT22;3136;48.788;9.772;2022-08-19T07:45:05;18.50;1.00
6206;DHT22;3136;48.788;9.772;2022-08-19T07:47:31;18.50;99.90
6206;DHT22;3136;48.788;9.772;2022-08-19T07:49:57;18.50;1.00
6206;DHT22;3136;48.788;9.772;2022-08-19T07:52:22;18.40;1.00
6206;DHT22;3136;48.788;9.772;2022-08-19T07:54:48;18.50;99.90
6206;DHT22;3136;48.788;9.772;2022-08-19T07:57:15;19.00;99.90
6206;DHT22;3136;48.788;9.772;2022-08-19T07:59:41;18.40;99.90
6206;DHT22;3136;48.788;9.772;2022-08-19T08:02:08;18.40;99.90
6206;DHT22;3136;48.788;9.772;2022-08-19T08:04:33;18.40;99.90
6206;DHT22;3136;48.788;9.772;2022-08-19T08:07:17;18.40;1.00
6206;DHT22;3136;48.788;9.772;2022-08-19T08:10:04;18.40;1.00
6206;DHT22;3136;48.788;9.772;2022-08-19T08:12:34;18.40;1.00
6206;DHT22;3136;48.788;9.772;2022-08-19T08:15:07;18.50;99.90
6206;DHT22;3136;48.788;9.772;2022-08-19T08:17:34;18.40;99.90
6206;DHT22;3136;48.788;9.772;2022-08-19T08:19:59;18.50;99.90
6206;DHT22;3136;48.788;9.772;2022-08-19T08:22:25;18.60;75.30
6206;DHT22;3136;48.788;9.772;2022-08-19T08:25:18;18.50;99.90
6206;DHT22;3136;48.788;9.772;2022-08-19T08:27:45;18.50;99.60
6206;DHT22;3136;48.788;9.772;2022-08-19T08:30:15;18.50;1.00
6206;DHT22;3136;48.788;9.772;2022-08-19T08:32:42;18.50;1.00
6206;DHT22;3136;48.788;9.772;2022-08-19T08:35:10;18.50;99.90
6206;DHT22;3136;48.788;9.772;2022-08-19T08:37:36;18.60;99.90
6206;DHT22;3136;48.788;9.772;2022-08-19T08:42:42;18.50;1.00
6206;DHT22;3136;48.788;9.772;2022-08-19T08:45:13;18.60;99.90
6206;DHT22;3136;48.788;9.772;2022-08-19T08:47:44;18.50;1.00
6206;DHT22;3136;48.788;9.772;2022-08-19T08:50:34;18.50;99.90
6206;DHT22;3136;48.788;9.772;2022-08-19T08:53:05;18.60;1.00
6206;DHT22;3136;48.788;9.772;2022-08-19T08:55:32;18.60;8.40
6206;DHT22;3136;48.788;9.772;2022-08-19T08:58:09;18.60;1.00
6206;DHT22;3136;48.788;9.772;2022-08-19T09:00:44;18.70;1.00
6206;DHT22;3136;48.788;9.772;2022-08-19T09:03:20;18.70;99.90
6206;DHT22;3136;48.788;9.772;2022-08-19T09:06:01;18.70;1.00
6206;DHT22;3136;48.788;9.772;2022-08-19T09:08:39;18.70;99.90
6206;DHT22;3136;48.788;9.772;2022-08-19T09:11:09;18.70;1.00
6206;DHT22;3136;48.788;9.772;2022-08-19T09:16:16;18.80;84.80
6206;DHT22;3136;48.788;9.772;2022-08-19T09:18:47;18.80;1.00
6206;DHT22;3136;48.788;9.772;2022-08-19T09:21:15;18.90;1.00
6206;DHT22;3136;48.788;9.772;2022-08-19T09:23:41;19.00;1.00
6206;DHT22;3136;48.788;9.772;2022-08-19T09:26:10;19.10;1.00
6206;DHT22;3136;48.788;9.772;2022-08-19T09:28:42;19.00;99.90
6206;DHT22;3136;48.788;9.772;2022-08-19T09:31:17;19.00;99.90
6206;DHT22;3136;48.788;9.772;2022-08-19T09:33:43;19.20;99.90
6206;DHT22;3136;48.788;9.772;2022-08-19T09:36:12;19.20;1.00
6206;DHT22;3136;48.788;9.772;2022-08-19T09:38:39;19.10;99.90
6206;DHT22;3136;48.788;9.772;2022-08-19T09:41:08;19.10;99.90
6206;DHT22;3136;48.788;9.772;2022-08-19T09:43:34;19.30;99.90
6206;DHT22;3136;48.788;9.772;2022-08-19T09:46:03;19.30;1.00
6206;DHT22;3136;48.788;9.772;2022-08-19T09:48:32;19.40;1.00
6206;DHT22;3136;48.788;9.772;2022-08-19T09:51:13;19.50;1.00
6206;DHT22;3136;48.788;9.772;2022-08-19T09:53:43;19.50;99.90
6206;DHT22;3136;48.788;9.772;2022-08-19T09:56:09;19.60;99.90
6206;DHT22;3136;48.788;9.772;2022-08-19T09:58:36;19.40;1.00
6206;DHT22;3136;48.788;9.772;2022-08-19T10:01:02;19.50;1.00
6206;DHT22;3136;48.788;9.772;2022-08-19T10:03:29;19.50;1.00
6206;DHT22;3136;48.788;9.772;2022-08-19T10:05:57;19.50;99.90
6206;DHT22;3136;48.788;9.772;2022-08-19T10:08:28;19.50;1.00
6206;DHT22;3136;48.788;9.772;2022-08-19T10:10:55;19.60;82.00
6206;DHT22;3136;48.788;9.772;2022-08-19T10:13:23;19.60;1.00
6206;DHT22;3136;48.788;9.772;2022-08-19T10:15:54;19.70;1.00
6206;DHT22;3136;48.788;9.772;2022-08-19T10:18:22;19.70;1.00
6206;DHT22;3136;48.788;9.772;2022-08-19T10:20:49;19.80;1.00
6206;DHT22;3136;48.788;9.772;2022-08-19T10:23:16;19.70;1.00
6206;DHT22;3136;48.788;9.772;2022-08-19T10:25:42;19.60;1.00
6206;DHT22;3136;48.788;9.772;2022-08-19T10:28:08;19.60;1.00
6206;DHT22;3136;48.788;9.772;2022-08-19T10:30:40;19.60;1.00
6206;DHT22;3136;48.788;9.772;2022-08-19T10:33:06;19.50;1.00
6206;DHT22;3136;48.788;9.772;2022-08-19T10:35:32;19.40;1.00
6206;DHT22;3136;48.788;9.772;2022-08-19T10:37:58;19.40;1.00
6206;DHT22;3136;48.788;9.772;2022-08-19T10:40:26;19.40;1.00
6206;DHT22;3136;48.788;9.772;2022-08-19T10:42:52;19.40;1.00
6206;DHT22;3136;48.788;9.772;2022-08-19T10:45:18;19.40;50.50
6206;DHT22;3136;48.788;9.772;2022-08-19T10:47:44;19.40;99.90
6206;DHT22;3136;48.788;9.772;2022-08-19T10:50:10;19.40;99.90
6206;DHT22;3136;48.788;9.772;2022-08-19T10:52:54;19.50;99.90
6206;DHT22;3136;48.788;9.772;2022-08-19T10:55:22;19.50;1.00
6206;DHT22;3136;48.788;9.772;2022-08-19T10:58:14;19.60;1.00
6206;DHT22;3136;48.788;9.772;2022-08-19T11:00:41;19.50;1.00
6206;DHT22;3136;48.788;9.772;2022-08-19T11:03:08;19.50;1.00
6206;DHT22;3136;48.788;9.772;2022-08-19T11:05:33;19.50;1.00
6206;DHT22;3136;48.788;9.772;2022-08-19T11:07:59;19.50;1.00
6206;DHT22;3136;48.788;9.772;2022-08-19T11:10:25;19.50;1.00
6206;DHT22;3136;48.788;9.772;2022-08-19T11:12:50;19.40;1.00
6206;DHT22;3136;48.788;9.772;2022-08-19T11:15:20;19.40;1.00
6206;DHT22;3136;48.788;9.772;2022-08-19T11:17:45;19.10;1.00
6206;DHT22;3136;48.788;9.772;2022-08-19T11:20:13;19.40;73.90
6206;DHT22;3136;48.788;9.772;2022-08-19T11:22:39;19.40;99.90
6206;DHT22;3136;48.788;9.772;2022-08-19T11:25:07;19.50;99.90
6206;DHT22;3136;48.788;9.772;2022-08-19T11:27:32;19.50;99.90
6206;DHT22;3136;48.788;9.772;2022-08-19T11:29:59;19.60;99.90
6206;DHT22;3136;48.788;9.772;2022-08-19T11:32:24;19.50;99.90
6206;DHT22;3136;48.788;9.772;2022-08-19T11:34:50;19.50;1.00
6206;DHT22;3136;48.788;9.772;2022-08-19T11:37:15;19.40;1.00
6206;DHT22;3136;48.788;9.772;2022-08-19T11:39:41;19.30;99.90
6206;DHT22;3136;48.788;9.772;2022-08-19T11:42:06;19.20;99.90
6206;DHT22;3136;48.788;9.772;2022-08-19T11:44:52;19.20;99.90
6206;DHT22;3136;48.788;9.772;2022-08-19T11:47:18;19.10;99.90
6206;DHT22;3136;48.788;9.772;2022-08-19T11:49:46;19.00;1.00
6206;DHT22;3136;48.788;9.772;2022-08-19T11:52:11;19.00;15.90
6206;DHT22;3136;48.788;9.772;2022-08-19T11:54:37;18.90;1.00
6206;DHT22;3136;48.788;9.772;2022-08-19T11:57:04;18.80;1.00
6206;DHT22;3136;48.788;9.772;2022-08-19T11:59:29;18.80;99.90
6206;DHT22;3136;48.788;9.772;2022-08-19T12:01:55;18.80;1.00
6206;DHT22;3136;48.788;9.772;2022-08-19T12:04:21;18.50;1.00
6206;DHT22;3136;48.788;9.772;2022-08-19T12:06:47;18.60;60.40
6206;DHT22;3136;48.788;9.772;2022-08-19T12:09:12;18.50;99.90
6206;DHT22;3136;48.788;9.772;2022-08-19T12:11:39;18.50;1.00
6206;DHT22;3136;48.788;9.772;2022-08-19T12:14:08;18.60;1.00
6206;DHT22;3136;48.788;9.772;2022-08-19T12:16:34;18.50;1.00
6206;DHT22;3136;48.788;9.772;2022-08-19T12:19:01;18.40;1.00
6206;DHT22;3136;48.788;9.772;2022-08-19T12:21:31;18.60;1.00
6206;DHT22;3136;48.788;9.772;2022-08-19T12:23:58;18.50;1.00
6206;DHT22;3136;48.788;9.772;2022-08-19T12:26:26;18.50;1.00
6206;DHT22;3136;48.788;9.772;2022-08-19T12:28:52;18.60;1.00
6206;DHT22;3136;48.788;9.772;2022-08-19T12:31:18;18.40;1.00
6206;DHT22;3136;48.788;9.772;2022-08-19T12:33:45;18.40;1.00
6206;DHT22;3136;48.788;9.772;2022-08-19T12:36:13;18.40;1.00
6206;DHT22;3136;48.788;9.772;2022-08-19T12:38:40;18.40;1.00
6206;DHT22;3136;48.788;9.772;2022-08-19T12:41:10;18.40;1.00
6206;DHT22;3136;48.788;9.772;2022-08-19T12:43:36;18.40;1.00
6206;DHT22;3136;48.788;9.772;2022-08-19T12:46:04;18.40;1.00
6206;DHT22;3136;48.788;9.772;2022-08-19T12:48:31;18.30;1.00
6206;DHT22;3136;48.788;9.772;2022-08-19T12:50:56;18.30;1.00
6206;DHT22;3136;48.788;9.772;2022-08-19T12:53:22;18.30;1.00
6206;DHT22;3136;48.788;9.772;2022-08-19T12:55:54;18.30;1.00
6206;DHT22;3136;48.788;9.772;2022-08-19T12:58:21;18.30;1.00
6206;DHT22;3136;48.788;9.772;2022-08-19T13:00:47;18.40;1.00
6206;DHT22;3136;48.788;9.772;2022-08-19T13:03:12;18.30;1.50
6206;DHT22;3136;48.788;9.772;2022-08-19T13:05:38;18.20;2.50
6206;DHT22;3136;48.788;9.772;2022-08-19T13:08:04;18.30;4.70
6206;DHT22;3136;48.788;9.772;2022-08-19T13:10:32;18.20;7.30
6206;DHT22;3136;48.788;9.772;2022-08-19T13:13:02;18.20;9.10
6206;DHT22;3136;48.788;9.772;2022-08-19T13:15:29;18.20;12.90
6206;DHT22;3136;48.788;9.772;2022-08-19T13:17:58;18.20;16.90
6206;DHT22;3136;48.788;9.772;2022-08-19T13:20:24;18.30;20.70
6206;DHT22;3136;48.788;9.772;2022-08-19T13:22:50;18.30;20.90
6206;DHT22;3136;48.788;9.772;2022-08-19T13:25:16;18.20;21.50
6206;DHT22;3136;48.788;9.772;2022-08-19T13:27:44;18.20;23.00
6206;DHT22;3136;48.788;9.772;2022-08-19T13:30:13;18.20;26.10
6206;DHT22;3136;48.788;9.772;2022-08-19T13:32:57;18.20;27.40
6206;DHT22;3136;48.788;9.772;2022-08-19T13:35:54;18.30;31.50
6206;DHT22;3136;48.788;9.772;2022-08-19T13:38:23;18.30;35.00
6206;DHT22;3136;48.788;9.772;2022-08-19T13:40:50;18.30;36.20
6206;DHT22;3136;48.788;9.772;2022-08-19T13:43:17;18.30;37.60
6206;DHT22;3136;48.788;9.772;2022-08-19T13:45:44;18.40;37.80
6206;DHT22;3136;48.788;9.772;2022-08-19T13:48:10;18.30;38.00
6206;DHT22;3136;48.788;9.772;2022-08-19T13:50:43;18.40;40.00
6206;DHT22;3136;48.788;9.772;2022-08-19T13:53:10;18.40;40.50
6206;DHT22;3136;48.788;9.772;2022-08-19T13:55:40;18.40;41.70
6206;DHT22;3136;48.788;9.772;2022-08-19T13:58:06;18.40;42.40
6206;DHT22;3136;48.788;9.772;2022-08-19T14:00:39;18.30;41.40
6206;DHT22;3136;48.788;9.772;2022-08-19T14:03:05;18.40;41.90
6206;DHT22;3136;48.788;9.772;2022-08-19T14:05:31;18.40;44.00
6206;DHT22;3136;48.788;9.772;2022-08-19T14:07:57;18.40;45.10
6206;DHT22;3136;48.788;9.772;2022-08-19T14:10:24;18.40;46.20
6206;DHT22;3136;48.788;9.772;2022-08-19T14:12:55;18.50;47.60
6206;DHT22;3136;48.788;9.772;2022-08-19T14:15:24;18.50;48.70
6206;DHT22;3136;48.788;9.772;2022-08-19T14:17:50;18.50;50.00
6206;DHT22;3136;48.788;9.772;2022-08-19T14:20:16;18.70;51.40
6206;DHT22;3136;48.788;9.772;2022-08-19T14:22:42;18.60;52.50
6206;DHT22;3136;48.788;9.772;2022-08-19T14:25:12;18.60;52.60
6206;DHT22;3136;48.788;9.772;2022-08-19T14:27:39;18.60;53.10
6206;DHT22;3136;48.788;9.772;2022-08-19T14:30:09;18.50;53.50
6206;DHT22;3136;48.788;9.772;2022-08-19T14:32:36;18.60;53.70
6206;DHT22;3136;48.788;9.772;2022-08-19T14:35:03;18.80;55.00
6206;DHT22;3136;48.788;9.772;2022-08-19T14:37:29;18.70;56.50
6206;DHT22;3136;48.788;9.772;2022-08-19T14:39:55;18.80;57.20
6206;DHT22;3136;48.788;9.772;2022-08-19T14:42:21;18.80;58.70
6206;DHT22;3136;48.788;9.772;2022-08-19T14:44:46;18.90;59.70
6206;DHT22;3136;48.788;9.772;2022-08-19T14:47:12;19.00;59.80
6206;DHT22;3136;48.788;9.772;2022-08-19T14:49:38;18.80;58.60
6206;DHT22;3136;48.788;9.772;2022-08-19T14:52:04;18.90;55.50
6206;DHT22;3136;48.788;9.772;2022-08-19T14:54:30;18.90;56.50
6206;DHT22;3136;48.788;9.772;2022-08-19T14:56:56;19.10;58.20
6206;DHT22;3136;48.788;9.772;2022-08-19T14:59:21;19.00;58.50
6206;DHT22;3136;48.788;9.772;2022-08-19T15:01:47;19.10;58.70
6206;DHT22;3136;48.788;9.772;2022-08-19T15:04:13;19.10;57.90
6206;DHT22;3136;48.788;9.772;2022-08-19T15:06:39;19.10;55.20
6206;DHT22;3136;48.788;9.772;2022-08-19T15:09:08;19.10;54.10
6206;DHT22;3136;48.788;9.772;2022-08-19T15:11:34;19.10;53.90
6206;DHT22;3136;48.788;9.772;2022-08-19T15:14:00;19.10;51.70
6206;DHT22;3136;48.788;9.772;2022-08-19T15:16:27;19.10;50.90
6206;DHT22;3136;48.788;9.772;2022-08-19T15:18:55;19.00;48.80
6206;DHT22;3136;48.788;9.772;2022-08-19T15:21:22;19.10;49.40
6206;DHT22;3136;48.788;9.772;2022-08-19T15:23:49;19.10;51.80
6206;DHT22;3136;48.788;9.772;2022-08-19T15:26:19;19.10;53.90
6206;DHT22;3136;48.788;9.772;2022-08-19T15:28:45;19.10;52.50
6206;DHT22;3136;48.788;9.772;2022-08-19T15:31:11;19.20;53.20
6206;DHT22;3136;48.788;9.772;2022-08-19T15:33:38;19.20;54.30
6206;DHT22;3136;48.788;9.772;2022-08-19T15:36:07;19.20;52.60
6206;DHT22;3136;48.788;9.772;2022-08-19T15:38:33;19.10;43.10
6206;DHT22;3136;48.788;9.772;2022-08-19T15:41:00;19.10;43.70
6206;DHT22;3136;48.788;9.772;2022-08-19T15:43:45;19.00;34.20
6206;DHT22;3136;48.788;9.772;2022-08-19T15:46:11;18.90;31.70
6206;DHT22;3136;48.788;9.772;2022-08-19T15:48:37;18.90;30.00
6206;DHT22;3136;48.788;9.772;2022-08-19T15:51:03;18.80;31.00
6206;DHT22;3136;48.788;9.772;2022-08-19T15:53:28;18.80;34.60
6206;DHT22;3136;48.788;9.772;2022-08-19T15:55:54;18.80;37.70
6206;DHT22;3136;48.788;9.772;2022-08-19T15:58:20;18.70;37.50
6206;DHT22;3136;48.788;9.772;2022-08-19T16:01:06;18.80;35.40
6206;DHT22;3136;48.788;9.772;2022-08-19T16:03:52;18.80;37.50
6206;DHT22;3136;48.788;9.772;2022-08-19T16:06:37;18.70;39.00
6206;DHT22;3136;48.788;9.772;2022-08-19T16:09:03;18.70;40.00
6206;DHT22;3136;48.788;9.772;2022-08-19T16:11:32;18.70;42.70
6206;DHT22;3136;48.788;9.772;2022-08-19T16:13:59;18.60;45.60
6206;DHT22;3136;48.788;9.772;2022-08-19T16:16:31;18.70;49.40
6206;DHT22;3136;48.788;9.772;2022-08-19T16:18:59;18.60;51.20
6206;DHT22;3136;48.788;9.772;2022-08-19T16:21:26;18.70;52.00
6206;DHT22;3136;48.788;9.772;2022-08-19T16:23:56;18.60;47.70